Time;durP1;ratioP1;P1;durP2;ratioP2;P2;SDS_P1;SDS_P2;PMS_P1;PMS_P2;Temp;Humidity;BMP_temperature;BMP_pressure;BME280_temperature;BME280_humidity;BME280_pressure;Samples;Min_cycle;Max_cycle;Signal;HPM_P1;HPM_P2
2020/12/07 00:00:38;;;;;;;24.37;14.00;;;;;;;3.61;80.00;99931.46;4821065;60;1136620;-85
2020/12/07 00:05:44;;;;;;;29.72;16.70;;;;;;;3.60;79.93;99919.78;4790565;60;1136653;-84
2020/12/07 00:10:49;;;;;;;28.33;15.50;;;;;;;3.59;79.87;99917.63;4663990;61;1136472;-85
2020/12/07 00:15:55;;;;;;;26.60;15.93;;;;;;;3.54;80.01;99910.52;4670333;61;1136861;-85
2020/12/07 00:21:00;;;;;;;33.13;16.60;;;;;;;3.49;79.99;99900.81;4683594;61;1136762;-85
2020/12/07 00:26:11;;;;;;;26.80;15.93;;;;;;;3.47;79.98;99898.28;4684445;61;1136508;-85
2020/12/07 00:31:16;;;;;;;32.80;16.40;;;;;;;3.44;79.98;99890.61;4684054;61;1136479;-84
2020/12/07 00:36:22;;;;;;;31.23;18.27;;;;;;;3.37;80.15;99893.19;4748962;61;1136519;-85
2020/12/07 00:41:28;;;;;;;29.37;16.77;;;;;;;3.38;79.88;99887.03;4710696;60;1136787;-85
2020/12/07 00:46:36;;;;;;;29.53;15.67;;;;;;;3.34;80.18;99886.02;4898937;58;1136257;-85
2020/12/07 00:51:41;;;;;;;28.40;15.87;;;;;;;3.31;80.18;99882.27;4913437;58;1136307;-85
2020/12/07 00:57:00;;;;;;;27.80;16.90;;;;;;;3.26;80.23;99872.08;4901499;58;1136303;-85
2020/12/07 01:02:07;;;;;;;33.63;16.23;;;;;;;3.24;80.17;99876.54;4915804;58;1136268;-85
2020/12/07 01:07:13;;;;;;;41.57;20.73;;;;;;;3.23;80.21;99868.33;4901986;59;1136216;-85
2020/12/07 01:12:20;;;;;;;33.50;16.73;;;;;;;3.20;80.02;99872.91;4903992;59;1136484;-85
2020/12/07 01:17:27;;;;;;;27.77;13.13;;;;;;;3.13;80.39;99863.27;4925903;58;1136290;-84
2020/12/07 01:22:34;;;;;;;29.47;16.83;;;;;;;3.11;80.14;99865.95;4952255;58;1136401;-85
2020/12/07 01:27:40;;;;;;;26.87;13.87;;;;;;;3.06;80.64;99850.16;4896627;58;1136684;-84
2020/12/07 01:32:46;;;;;;;26.83;15.10;;;;;;;3.05;80.63;99847.20;4889475;58;1137053;-85
2020/12/07 01:37:52;;;;;;;29.33;17.03;;;;;;;3.03;80.64;99846.44;4901334;58;1136427;-85
2020/12/07 01:42:58;;;;;;;26.87;14.67;;;;;;;3.01;80.35;99843.07;4944849;58;1136178;-85
2020/12/07 01:48:04;;;;;;;29.70;15.40;;;;;;;3.02;80.39;99847.37;4901479;59;1136497;-85
2020/12/07 01:53:14;;;;;;;30.73;14.93;;;;;;;2.94;80.79;99850.41;4896584;58;1136191;-85
2020/12/07 01:58:20;;;;;;;38.27;17.53;;;;;;;2.94;80.84;99850.41;4936944;59;1136612;-85
2020/12/07 02:03:27;;;;;;;34.03;19.25;;;;;;;2.91;80.73;99836.20;4789818;59;1136290;-85
2020/12/07 02:08:32;;;;;;;26.07;16.00;;;;;;;2.91;80.85;99836.20;4911292;59;1136229;-85
2020/12/07 02:13:39;;;;;;;30.90;16.87;;;;;;;2.93;80.75;99830.90;4906264;58;1136655;-85
2020/12/07 02:18:45;;;;;;;31.70;16.57;;;;;;;2.95;80.55;99836.88;4918421;59;1136158;-85
2020/12/07 02:23:52;;;;;;;27.87;15.60;;;;;;;2.95;80.54;99841.64;4900019;59;1136651;-85
2020/12/07 02:28:59;;;;;;;27.60;16.80;;;;;;;3.00;80.27;99840.08;4901125;58;1136416;-85
2020/12/07 02:34:06;;;;;;;28.33;16.10;;;;;;;2.99;80.42;99832.71;4897373;59;1136410;-85
2020/12/07 02:39:13;;;;;;;27.27;13.70;;;;;;;3.02;80.39;99834.31;4963997;58;1134091;-85
2020/12/07 02:44:20;;;;;;;28.30;15.33;;;;;;;3.00;80.52;99827.02;4923193;58;1136198;-85
2020/12/07 02:49:28;;;;;;;24.83;14.77;;;;;;;2.96;80.64;99832.03;4886246;59;1137060;-85
2020/12/07 02:54:35;;;;;;;15.17;10.70;;;;;;;2.94;80.72;99813.84;4919760;59;1136097;-86
2020/12/07 02:59:42;;;;;;;20.60;12.83;;;;;;;2.94;80.73;99829.51;4950331;59;1136400;-85
2020/12/07 03:04:48;;;;;;;17.97;11.70;;;;;;;2.95;80.73;99837.72;4905875;59;1136473;-85
2020/12/07 03:09:55;;;;;;;26.03;14.77;;;;;;;2.98;80.61;99826.27;4958977;58;1134280;-85
2020/12/07 03:15:02;;;;;;;22.03;14.13;;;;;;;2.96;80.61;99823.73;4906554;58;1136615;-85
2020/12/07 03:20:10;;;;;;;23.17;15.50;;;;;;;2.96;80.63;99833.34;4915478;59;1136308;-86
2020/12/07 03:25:16;;;;;;;21.53;12.00;;;;;;;2.96;80.58;99822.43;4900651;59;1136207;-86
2020/12/07 03:30:23;;;;;;;33.13;19.07;;;;;;;2.90;80.73;99819.34;4898445;59;1136680;-86
2020/12/07 03:35:30;;;;;;;30.60;17.53;;;;;;;2.94;80.56;99810.38;4892825;58;1136335;-86
2020/12/07 03:40:37;;;;;;;26.82;15.70;;;;;;;2.91;80.69;99825.76;4888086;58;1136323;-86
2020/12/07 03:45:45;;;;;;;23.47;15.27;;;;;;;2.94;80.54;99830.81;4859793;60;1136393;-86
2020/12/07 03:50:52;;;;;;;24.03;12.40;;;;;;;2.95;80.49;99817.30;4736313;60;1136430;-86
2020/12/07 03:55:59;;;;;;;27.53;14.07;;;;;;;2.92;80.58;99843.58;4741396;59;1136258;-86
2020/12/07 04:01:09;;;;;;;25.53;15.20;;;;;;;2.97;80.31;99837.64;4770711;59;1136325;-85
2020/12/07 04:06:29;;;;;;;21.63;14.07;;;;;;;2.97;80.23;99835.88;4851875;58;1136843;-86
2020/12/07 04:11:32;;;;;;;20.10;13.77;;;;;;;2.94;80.06;99842.56;4784254;60;1145695;-86
2020/12/07 04:16:38;;;;;;;29.60;16.05;;;;;;;2.94;80.04;99848.25;4661066;61;1136322;-86
2020/12/07 04:21:43;;;;;;;18.33;11.63;;;;;;;2.94;79.89;99853.02;4641973;62;1136702;-86
2020/12/07 04:26:49;;;;;;;22.00;12.13;;;;;;;2.90;79.80;99836.32;4712430;61;1136647;-85
2020/12/07 04:31:55;;;;;;;21.60;11.47;;;;;;;2.87;79.75;99828.66;4846346;58;1136659;-86
2020/12/07 04:37:00;;;;;;;27.27;14.30;;;;;;;2.82;79.69;99827.14;4811332;59;1136610;-86
2020/12/07 04:42:06;;;;;;;19.45;12.53;;;;;;;2.82;79.62;99824.53;4810274;58;1136400;-86
2020/12/07 04:47:18;;;;;;;49.97;23.47;;;;;;;2.77;79.74;99803.51;4833139;58;1136456;-85
2020/12/07 04:52:24;;;;;;;31.77;17.53;;;;;;;2.73;79.77;99805.95;4840805;59;1136579;-86
2020/12/07 04:57:30;;;;;;;28.23;12.37;;;;;;;2.70;79.77;99806.95;4840084;58;1136654;-85
2020/12/07 05:02:39;;;;;;;25.70;15.53;;;;;;;2.68;79.64;99803.58;4841629;59;1136599;-85
2020/12/07 05:07:50;;;;;;;24.43;14.40;;;;;;;2.66;79.71;99816.34;4839968;59;1136620;-85
2020/12/07 05:13:04;;;;;;;36.90;17.13;;;;;;;2.62;79.65;99800.47;4752919;60;1136745;-85
2020/12/07 05:18:03;;;;;;;34.78;17.67;;;;;;;2.58;79.68;99801.13;4753576;60;1137460;-85
2020/12/07 05:23:09;;;;;;;20.47;12.10;;;;;;;2.54;79.64;99800.91;4751346;60;1136509;-85
2020/12/07 05:28:21;;;;;;;32.93;13.27;;;;;;;2.52;79.64;99801.45;4752747;60;1136692;-84
2020/12/07 05:33:26;;;;;;;33.00;17.30;;;;;;;2.48;79.66;99802.55;4733661;60;1136592;-85
2020/12/07 05:38:35;;;;;;;27.87;13.15;;;;;;;2.43;79.66;99791.55;4755135;60;1136508;-85
2020/12/07 05:43:41;;;;;;;29.72;14.60;;;;;;;2.37;79.77;99795.78;4752228;60;1136877;-85
2020/12/07 05:48:48;;;;;;;22.77;12.53;;;;;;;2.35;79.78;99798.48;4788176;60;1136893;-85
2020/12/07 05:53:57;;;;;;;27.13;12.47;;;;;;;2.35;79.77;99791.11;4757976;59;1137013;-85
2020/12/07 05:59:15;;;;;;;22.63;12.87;;;;;;;2.33;79.70;99797.72;4722456;61;1136606;-85
2020/12/07 06:04:21;;;;;;;21.60;12.27;;;;;;;2.29;79.82;99796.69;4791014;59;1136462;-86
2020/12/07 06:09:29;;;;;;;17.33;9.27;;;;;;;2.24;79.91;99789.11;4758635;60;1136353;-91
2020/12/07 06:14:38;;;;;;;21.33;13.40;;;;;;;2.22;79.90;99793.56;4788447;59;1144352;-91
2020/12/07 06:19:46;;;;;;;24.50;13.27;;;;;;;2.23;79.84;99803.53;4753574;60;1136370;-91
2020/12/07 06:24:53;;;;;;;28.03;14.00;;;;;;;2.25;79.74;99812.13;4729739;59;1136470;-91
2020/12/07 06:30:05;;;;;;;27.13;13.80;;;;;;;2.25;79.62;99816.88;4775688;59;1136295;-91
2020/12/07 06:35:12;;;;;;;26.63;13.97;;;;;;;2.24;79.63;99813.05;4795534;59;1136295;-91
2020/12/07 06:40:24;;;;;;;18.23;10.33;;;;;;;2.24;79.50;99804.76;4792279;59;1136200;-90
2020/12/07 06:45:38;;;;;;;17.57;10.10;;;;;;;2.23;79.44;99823.94;4801210;59;1136255;-90
2020/12/07 06:50:50;;;;;;;18.60;9.73;;;;;;;2.18;79.48;99816.81;4780180;59;1136704;-91
2020/12/07 06:55:57;;;;;;;20.37;12.40;;;;;;;2.20;79.40;99823.26;4735286;59;1134209;-91
2020/12/07 07:01:15;;;;;;;19.40;11.53;;;;;;;2.17;79.41;99828.17;4771081;60;1136145;-91
2020/12/07 07:06:23;;;;;;;22.27;10.53;;;;;;;2.16;79.35;99830.41;4771611;59;1136341;-89
2020/12/07 07:11:29;;;;;;;17.93;9.67;;;;;;;2.17;79.24;99820.34;4798052;59;1136298;-90
2020/12/07 07:16:35;;;;;;;27.57;13.30;;;;;;;2.17;79.24;99833.39;4813908;59;1134617;-89
2020/12/07 07:21:52;;;;;;;19.40;10.70;;;;;;;2.19;79.16;99842.44;4791533;59;1136646;-89
2020/12/07 07:27:54;;;;;;;22.50;10.87;;;;;;;2.16;79.16;99858.25;4807507;59;1136177;-90
2020/12/07 07:32:06;;;;;;;18.03;11.37;;;;;;;2.19;79.05;99850.27;4782843;59;1136339;-90
2020/12/07 07:37:13;;;;;;;18.17;11.07;;;;;;;2.20;78.95;99867.61;4786610;59;1136706;-91
2020/12/07 07:42:19;;;;;;;21.43;11.13;;;;;;;2.17;78.96;99864.70;4756672;60;1136259;-90
2020/12/07 07:47:37;;;;;;;27.87;12.60;;;;;;;2.19;78.80;99858.94;4751719;60;1136437;-87
2020/12/07 07:59:16;;;;;;;23.17;13.73;;;;;;;2.19;78.56;99856.79;4833604;59;1136344;-85
2020/12/07 08:19:00;;;;;;;12.13;9.23;;;;;;;2.22;78.20;99878.34;4662546;60;1134393;-85
2020/12/07 08:24:09;;;;;;;21.57;10.57;;;;;;;2.25;78.04;99862.53;4669591;61;1134163;-85
2020/12/07 08:29:13;;;;;;;;;;;;;;;2.23;78.08;99846.12;4661265;61;1136455;-86
2020/12/07 08:34:23;;;;;;;14.83;8.53;;;;;;;2.27;78.04;99843.73;4673984;61;969490;-86
2020/12/07 08:39:25;;;;;;;17.27;11.33;;;;;;;2.25;77.92;99837.75;4587239;62;1132475;-86
2020/12/07 08:44:31;;;;;;;20.13;10.17;;;;;;;2.27;78.13;99846.80;4669386;61;1136375;-86
2020/12/07 08:49:37;;;;;;;16.80;9.70;;;;;;;2.30;77.88;99846.61;4695356;60;1136366;-86
2020/12/07 08:54:43;;;;;;;65.63;42.97;;;;;;;2.31;77.75;99845.69;4884069;58;1134584;-85
2020/12/07 08:59:48;;;;;;;15.70;11.43;;;;;;;2.37;77.76;99833.63;4892314;58;1136138;-87
2020/12/07 09:04:53;;;;;;;17.23;11.28;;;;;;;2.41;77.60;99828.16;4886734;58;1136350;-86
2020/12/07 09:09:59;;;;;;;31.23;17.20;;;;;;;2.44;77.29;99833.67;4907600;58;1136286;-87
2020/12/07 09:15:05;;;;;;;27.17;14.10;;;;;;;2.50;77.42;99822.88;4891554;58;1136196;-85
2020/12/07 09:20:11;;;;;;;19.27;10.60;;;;;;;2.48;77.28;99789.03;4875427;58;1136332;-86
2020/12/07 09:25:17;;;;;;;23.10;12.60;;;;;;;2.48;77.20;99822.96;4917574;58;1136648;-86
2020/12/07 09:30:22;;;;;;;24.23;10.23;;;;;;;2.52;77.33;99806.67;4894381;59;1136180;-85
2020/12/07 09:35:29;;;;;;;25.57;12.65;;;;;;;2.52;77.11;99811.05;4883220;58;1243417;-87
2020/12/07 09:40:34;;;;;;;17.90;7.93;;;;;;;2.48;77.21;99817.74;4879031;58;1136676;-86
2020/12/07 09:45:40;;;;;;;24.03;12.00;;;;;;;2.50;77.07;99797.24;4891124;58;1134520;-86
2020/12/07 09:50:47;;;;;;;25.63;13.47;;;;;;;2.59;77.30;99796.75;4819495;59;1136723;-85
2020/12/07 09:55:52;;;;;;;28.63;11.77;;;;;;;2.59;76.88;99785.84;4771715;60;1136465;-85
2020/12/07 10:00:58;;;;;;;28.67;12.78;;;;;;;2.71;77.08;99790.83;4736750;59;1136423;-86
2020/12/07 10:06:04;;;;;;;23.80;12.07;;;;;;;2.75;76.96;99797.06;4819702;59;1136585;-86
2020/12/07 10:11:09;;;;;;;34.83;14.13;;;;;;;2.82;76.85;99797.57;4816570;59;1136409;-86
2020/12/07 10:16:15;;;;;;;25.80;12.28;;;;;;;2.84;76.56;99804.86;4909675;58;1136689;-86
2020/12/07 10:21:28;;;;;;;22.70;10.80;;;;;;;2.87;76.78;99796.86;4796202;59;1136260;-86
2020/12/07 10:26:35;;;;;;;24.48;11.94;;;;;;;2.92;76.52;99810.93;4817555;60;1136287;-86
2020/12/07 10:31:40;;;;;;;21.07;11.70;;;;;;;2.90;76.68;99804.52;4808363;60;1136678;-86
2020/12/07 10:36:49;;;;;;;29.80;11.97;;;;;;;2.96;76.55;99814.59;4799941;59;1136679;-87
2020/12/07 10:41:55;;;;;;;20.82;11.80;;;;;;;2.97;76.38;99829.34;4802925;60;1136404;-86
2020/12/07 10:47:00;;;;;;;26.90;12.53;;;;;;;3.00;76.65;99840.92;4816030;59;1136168;-86
2020/12/07 10:52:06;;;;;;;15.87;10.27;;;;;;;3.01;76.96;99829.55;4803758;60;1136172;-87
2020/12/07 10:57:11;;;;;;;25.57;16.30;;;;;;;3.04;77.07;99833.30;4698444;60;1136613;-86
2020/12/07 11:02:18;;;;;;;22.83;12.60;;;;;;;3.10;77.08;99832.08;4659576;62;1136647;-85
2020/12/07 11:07:25;;;;;;;31.57;15.70;;;;;;;3.11;76.85;99811.09;4606491;62;1137142;-86
2020/12/07 11:12:31;;;;;;;23.97;13.57;;;;;;;3.17;76.70;99810.75;4607737;61;1136569;-84
2020/12/07 11:17:36;;;;;;;28.10;15.00;;;;;;;3.21;76.69;99813.19;4646505;61;1136922;-85
2020/12/07 11:22:42;;;;;;;28.20;13.00;;;;;;;3.25;76.43;99819.43;4605456;61;1136717;-84
2020/12/07 11:27:47;;;;;;;35.03;17.80;;;;;;;3.32;75.98;99826.46;4605474;62;1136793;-84
2020/12/07 11:32:53;;;;;;;20.60;11.50;;;;;;;3.32;75.98;99826.46;4606870;62;1136693;-85
2020/12/07 11:38:06;;;;;;;23.07;12.10;;;;;;;3.35;76.03;99819.28;4660308;61;1136511;-86
2020/12/07 11:43:16;;;;;;;42.27;20.73;;;;;;;3.36;75.76;99826.66;4756548;60;1136600;-86
2020/12/07 11:48:15;;;;;;;36.42;16.57;;;;;;;3.44;76.05;99828.34;4784445;60;1136158;-86
2020/12/07 11:53:20;;;;;;;37.53;14.90;;;;;;;3.44;75.54;99825.27;4748052;61;1136823;-86
2020/12/07 11:58:26;;;;;;;51.03;21.43;;;;;;;3.49;75.46;99831.53;4808393;59;1137292;-86
2020/12/07 12:03:32;;;;;;;123.57;70.07;;;;;;;3.52;75.56;99842.63;4818899;59;1137067;-86
2020/12/07 12:08:37;;;;;;;39.48;20.57;;;;;;;3.58;75.83;99853.66;4819853;58;1138759;-86
2020/12/07 12:13:45;;;;;;;17.48;10.72;;;;;;;3.57;75.15;99852.82;4816661;58;1136703;-86
2020/12/07 12:18:52;;;;;;;19.57;13.27;;;;;;;3.54;75.18;99855.61;4811358;59;1145966;-85
2020/12/07 12:24:02;;;;;;;35.77;17.30;;;;;;;3.59;75.28;99849.66;4710630;60;1136621;-85
2020/12/07 12:29:07;;;;;;;34.00;16.50;;;;;;;3.60;75.56;99843.49;4753416;60;1136360;-85
2020/12/07 12:34:13;;;;;;;25.57;12.70;;;;;;;3.61;75.47;99841.26;4762833;60;1136448;-85
2020/12/07 12:39:20;;;;;;;31.15;14.15;;;;;;;3.66;75.55;99848.37;4749814;60;1136772;-86
2020/12/07 12:44:26;;;;;;;30.15;13.68;;;;;;;3.67;75.30;99844.80;4822258;59;1136606;-85
2020/12/07 12:49:32;;;;;;;28.90;13.70;;;;;;;3.72;75.25;99838.83;4815072;59;1136387;-86
2020/12/07 12:54:38;;;;;;;55.45;22.67;;;;;;;3.75;75.37;99849.11;4705499;61;1136816;-84
2020/12/07 12:59:43;;;;;;;28.07;12.88;;;;;;;3.79;75.25;99849.77;4713925;60;1136731;-85
2020/12/07 13:04:49;;;;;;;44.77;17.80;;;;;;;3.83;75.06;99859.94;4674274;60;1136350;-86
2020/12/07 13:09:54;;;;;;;22.17;11.00;;;;;;;3.85;75.32;99865.92;4759155;60;1136185;-86
2020/12/07 13:15:00;;;;;;;19.67;11.90;;;;;;;3.87;74.76;99852.75;4703562;61;1136696;-86
2020/12/07 13:20:09;;;;;;;94.10;58.27;;;;;;;3.95;74.57;99853.61;4633328;62;1136787;-85
2020/12/07 13:25:31;;;;;;;33.02;12.65;;;;;;;3.88;74.84;99854.44;4737914;60;1136476;-86
2020/12/07 13:30:30;;;;;;;28.90;13.03;;;;;;;3.82;74.84;99870.48;4723604;61;1136280;-85
2020/12/07 13:35:35;;;;;;;61.63;23.20;;;;;;;3.71;75.02;99871.61;4748964;60;1136269;-86
2020/12/07 13:40:41;;;;;;;27.30;13.28;;;;;;;3.74;75.24;99880.59;4738507;61;1136334;-87
2020/12/07 13:45:46;;;;;;;32.90;16.30;;;;;;;3.69;75.14;99887.84;4738282;61;1136431;-86
2020/12/07 13:50:52;;;;;;;28.63;13.93;;;;;;;3.67;75.47;99897.55;4729863;61;1136241;-86
2020/12/07 13:55:58;;;;;;;22.27;12.63;;;;;;;3.68;75.42;99905.78;4724791;60;1136245;-86
2020/12/07 14:01:03;;;;;;;33.87;12.93;;;;;;;3.66;75.21;99908.52;4706198;61;1136710;-86
2020/12/07 14:06:09;;;;;;;119.03;35.50;;;;;;;3.68;75.33;99916.23;4694112;60;1136485;-86
2020/12/07 14:11:14;;;;;;;30.43;14.67;;;;;;;3.68;75.43;99926.23;4713027;60;1138427;-86
2020/12/07 14:16:22;;;;;;;43.87;19.27;;;;;;;3.66;75.41;99924.20;4694823;61;1136724;-85
2020/12/07 14:42:49;;;;;;;24.92;12.55;;;;;;;3.64;75.21;99943.06;4796370;58;1136841;-86
2020/12/07 14:48:08;;;;;;;32.13;15.13;;;;;;;3.66;75.16;99945.13;4712741;60;1136210;-85
2020/12/07 14:53:08;;;;;;;21.90;10.93;;;;;;;3.67;75.18;99962.93;4666018;61;1136241;-86
2020/12/07 15:14:20;;;;;;;36.87;15.20;;;;;;;3.65;75.31;99973.97;4731974;61;1136185;-84
2020/12/07 15:19:26;;;;;;;40.23;18.80;;;;;;;3.67;75.12;99983.39;4809968;58;1136652;-85
2020/12/07 15:24:32;;;;;;;27.77;13.60;;;;;;;3.67;75.18;99987.77;4803059;58;1136260;-85
2020/12/07 15:29:38;;;;;;;33.60;15.97;;;;;;;3.65;75.19;99980.05;4787374;60;1136811;-84
2020/12/07 15:34:43;;;;;;;32.48;14.20;;;;;;;3.68;75.26;99986.37;4716035;61;1136553;-84
2020/12/07 15:39:49;;;;;;;34.05;20.27;;;;;;;3.67;75.11;99987.31;4738737;60;1136239;-84
2020/12/07 15:44:54;;;;;;;31.45;16.67;;;;;;;3.68;74.98;99985.07;4829014;59;1136966;-84
2020/12/07 15:50:00;;;;;;;31.17;15.70;;;;;;;3.67;75.20;99987.31;4801175;60;1136221;-84
2020/12/07 15:55:05;;;;;;;36.17;17.53;;;;;;;3.71;75.21;99998.44;4715836;60;1136240;-84
2020/12/07 16:00:11;;;;;;;29.63;15.60;;;;;;;3.68;75.03;99990.30;4752826;61;1136344;-84
2020/12/07 16:05:17;;;;;;;32.27;16.57;;;;;;;3.66;75.12;99982.20;4790274;59;1136190;-84
2020/12/07 16:10:22;;;;;;;39.03;18.20;;;;;;;3.63;75.03;99975.36;4843046;60;1136147;-85
2020/12/07 16:15:28;;;;;;;34.17;15.47;;;;;;;3.56;74.98;99981.86;4748132;60;1136235;-84
2020/12/07 16:20:34;;;;;;;46.07;17.77;;;;;;;3.49;74.90;99998.84;4831221;58;1136173;-85
2020/12/07 16:25:39;;;;;;;56.43;24.17;;;;;;;3.45;74.86;99995.55;4849388;59;1136525;-85
2020/12/07 16:30:45;;;;;;;29.77;13.47;;;;;;;3.39;74.99;99989.81;4837228;58;1141377;-86
2020/12/07 16:35:51;;;;;;;54.60;21.17;;;;;;;3.39;74.66;100000.27;4835774;58;1136739;-85
2020/12/07 16:40:56;;;;;;;24.90;10.33;;;;;;;3.35;74.72;100010.08;4851707;58;1138412;-86
2020/12/07 16:46:02;;;;;;;44.53;16.93;;;;;;;3.30;74.74;100009.95;4835245;58;1138347;-86
2020/12/07 16:51:09;;;;;;;40.67;17.20;;;;;;;3.31;74.69;100029.47;4871647;59;1138421;-85
2020/12/07 16:56:15;;;;;;;36.63;14.97;;;;;;;3.29;74.80;100026.09;4853738;58;1138476;-86
2020/12/07 17:01:21;;;;;;;27.37;11.53;;;;;;;3.28;74.54;100024.87;4759018;60;1138047;-86
2020/12/07 17:06:26;;;;;;;36.07;15.70;;;;;;;3.25;74.30;100026.34;4829980;58;1138537;-85
2020/12/07 17:11:34;;;;;;;34.40;15.28;;;;;;;3.27;74.57;100038.86;4822326;59;1138461;-86
2020/12/07 17:16:39;;;;;;;56.13;21.53;;;;;;;3.29;74.50;100035.70;4839606;59;1138766;-85
2020/12/07 17:21:46;;;;;;;30.27;14.47;;;;;;;3.25;74.49;100042.02;4823699;59;1138409;-85
2020/12/07 17:26:52;;;;;;;32.43;15.27;;;;;;;3.27;74.40;100034.48;4824296;59;1138834;-85
2020/12/07 17:31:57;;;;;;;39.93;17.67;;;;;;;3.29;74.35;100031.78;4829308;59;1138749;-84
2020/12/07 17:37:03;;;;;;;29.20;11.87;;;;;;;3.29;74.53;100042.23;4827293;59;1138425;-85
2020/12/07 17:42:09;;;;;;;35.30;15.53;;;;;;;3.30;74.21;100033.47;4819300;59;1138558;-84
2020/12/07 17:47:15;;;;;;;30.00;13.87;;;;;;;3.27;74.30;100024.02;4823826;59;1138724;-85
2020/12/07 17:52:21;;;;;;;41.60;17.83;;;;;;;3.25;74.11;100032.41;4835737;59;1138559;-85
2020/12/07 17:57:27;;;;;;;45.27;14.60;;;;;;;3.23;74.22;100036.02;4832294;59;1138287;-85
2020/12/07 18:02:32;;;;;;;29.97;13.60;;;;;;;3.18;74.16;100041.06;4832945;59;1138395;-85
2020/12/07 18:07:38;;;;;;;30.47;12.17;;;;;;;3.20;74.19;100037.53;4866918;59;1138305;-85
2020/12/07 18:12:44;;;;;;;44.13;17.00;;;;;;;3.18;74.21;100034.99;4830673;58;1138529;-85
2020/12/07 18:17:50;;;;;;;33.50;15.18;;;;;;;3.18;74.30;100042.84;4820329;59;1138756;-85
2020/12/07 18:22:55;;;;;;;40.10;16.40;;;;;;;3.15;73.93;100046.91;4811104;59;1138348;-85
2020/12/07 18:28:01;;;;;;;31.37;14.53;;;;;;;3.15;73.93;100046.91;4826601;59;1138417;-84
2020/12/07 18:33:07;;;;;;;47.97;17.47;;;;;;;3.10;73.91;100041.09;4797621;59;1138851;-85
2020/12/07 18:38:12;;;;;;;31.33;13.47;;;;;;;3.12;73.61;100053.14;4794234;59;1138778;-85
2020/12/07 18:43:18;;;;;;;53.73;19.70;;;;;;;3.09;73.49;100048.55;4791107;59;1138909;-84
2020/12/07 18:48:23;;;;;;;34.97;13.93;;;;;;;3.06;73.62;100048.24;4791571;59;1138877;-85
2020/12/07 18:53:29;;;;;;;52.30;21.47;;;;;;;3.05;73.38;100053.58;4798879;59;1138553;-83
2020/12/07 18:58:35;;;;;;;48.60;18.87;;;;;;;3.02;73.56;100055.05;4784563;59;1138763;-84
2020/12/07 19:03:40;;;;;;;45.40;17.47;;;;;;;2.99;73.50;100062.58;4792589;58;1138725;-85
2020/12/07 19:08:46;;;;;;;47.00;19.50;;;;;;;2.98;73.35;100065.27;4791700;59;1138781;-85
2020/12/07 19:13:53;;;;;;;32.38;15.03;;;;;;;2.94;73.62;100061.13;4791731;59;1138663;-84
2020/12/07 19:18:59;;;;;;;34.57;15.67;;;;;;;2.96;73.58;100066.66;4701249;61;1138871;-85
2020/12/07 19:24:06;;;;;;;35.63;15.87;;;;;;;2.95;73.41;100070.65;4712586;61;1138688;-86
2020/12/07 19:29:11;;;;;;;35.47;16.33;;;;;;;2.88;73.25;100065.39;4711828;60;1138347;-85
2020/12/07 19:34:17;;;;;;;36.35;15.53;;;;;;;2.89;73.40;100056.17;4753583;61;1138376;-85
2020/12/07 19:39:23;;;;;;;30.43;13.73;;;;;;;2.91;73.24;100049.53;4664767;61;1138745;-85
2020/12/07 19:44:29;;;;;;;46.13;17.40;;;;;;;2.89;73.23;100058.78;4719136;60;1138398;-85
2020/12/07 19:49:35;;;;;;;39.87;16.20;;;;;;;2.87;73.28;100071.07;4692988;61;1138712;-84
2020/12/07 19:54:40;;;;;;;49.93;20.77;;;;;;;2.88;73.14;100067.53;4685043;61;1138718;-84
2020/12/07 19:59:47;;;;;;;84.42;28.50;;;;;;;2.85;73.33;100057.70;4686905;61;1138749;-85
2020/12/07 20:04:53;;;;;;;51.23;20.87;;;;;;;2.85;73.52;100074.22;4704927;60;1138449;-85
2020/12/07 20:10:00;;;;;;;38.93;16.03;;;;;;;2.87;73.40;100064.55;4710295;60;1138448;-85
2020/12/07 20:15:09;;;;;;;41.73;16.33;;;;;;;2.80;73.22;100066.63;4706343;60;1138597;-84
2020/12/07 20:20:14;;;;;;;55.03;23.13;;;;;;;2.81;73.36;100072.69;4723176;60;1138337;-85
2020/12/07 20:25:21;;;;;;;55.27;21.27;;;;;;;2.82;73.47;100086.12;4666418;60;1138386;-84
2020/12/07 20:30:26;;;;;;;51.80;20.60;;;;;;;2.80;73.58;100086.67;4718832;60;1138438;-84
2020/12/07 20:35:38;;;;;;;43.40;17.53;;;;;;;2.80;73.57;100084.06;4720590;60;1138609;-85
2020/12/07 20:40:39;;;;;;;33.83;14.63;;;;;;;2.78;73.38;100064.55;4714154;61;1138523;-85
2020/12/07 20:45:45;;;;;;;41.05;17.62;;;;;;;2.75;73.56;100084.28;4720287;60;1138626;-85
2020/12/07 20:51:28;;;;;;;47.98;18.32;;;;;;;2.76;73.41;100080.75;4734962;61;1138557;-85
2020/12/07 20:56:34;;;;;;;32.50;14.53;;;;;;;2.78;73.61;100093.27;4737668;60;1138431;-86
2020/12/07 21:01:39;;;;;;;34.60;14.80;;;;;;;2.75;73.57;100096.53;4723266;60;1138725;-86
2020/12/07 21:06:45;;;;;;;32.43;14.33;;;;;;;2.77;73.61;100096.80;4764014;61;1138296;-86
2020/12/07 21:11:57;;;;;;;35.88;15.88;;;;;;;2.73;73.55;100098.37;4736072;60;1138573;-86
2020/12/07 21:17:03;;;;;;;26.27;12.80;;;;;;;2.71;73.68;100095.84;4651528;61;1138763;-87
2020/12/07 21:22:09;;;;;;;18.10;8.23;;;;;;;2.70;73.53;100098.53;4809720;60;21464;-86
2020/12/07 21:27:15;;;;;;;35.60;15.83;;;;;;;2.66;73.84;100106.13;4670425;61;1132037;-85
2020/12/07 21:32:20;;;;;;;36.28;15.72;;;;;;;2.62;74.21;100087.63;4720016;61;1138305;-85
2020/12/07 21:37:26;;;;;;;36.77;15.17;;;;;;;2.62;74.32;100085.02;4782488;60;1139014;-85
2020/12/07 21:42:32;;;;;;;32.70;14.80;;;;;;;2.54;74.71;100095.86;4731749;61;1138570;-85
2020/12/07 21:47:40;;;;;;;35.10;16.57;;;;;;;2.54;74.85;100099.78;4764482;60;1138298;-85
2020/12/07 21:52:45;;;;;;;33.63;12.43;;;;;;;2.54;74.94;100098.47;4712309;61;1139157;-85
2020/12/07 21:57:51;;;;;;;32.80;13.87;;;;;;;2.45;75.45;100100.23;4714969;61;1138709;-85
2020/12/07 22:02:56;;;;;;;43.47;19.33;;;;;;;2.51;75.22;100103.84;4730381;61;1138323;-85
2020/12/07 22:08:02;;;;;;;39.00;16.90;;;;;;;2.47;75.36;100096.62;4673258;61;1138254;-85
2020/12/07 22:13:07;;;;;;;43.17;17.63;;;;;;;2.48;75.34;100106.61;4761000;59;1138355;-85
2020/12/07 22:18:13;;;;;;;35.70;16.73;;;;;;;2.51;75.41;100097.78;4878660;58;1138587;-85
2020/12/07 22:23:18;;;;;;;27.20;12.77;;;;;;;2.53;75.33;100103.77;4822683;58;1138244;-85
2020/12/07 22:28:24;;;;;;;33.60;14.33;;;;;;;2.50;75.26;100103.92;4836879;58;1138340;-85
2020/12/07 22:33:29;;;;;;;34.90;13.80;;;;;;;2.46;75.39;100099.31;4867801;59;1138345;-85
2020/12/07 22:38:35;;;;;;;35.17;15.67;;;;;;;2.46;75.39;100099.31;4853366;59;1138332;-85
2020/12/07 22:43:40;;;;;;;29.27;13.60;;;;;;;2.45;75.54;100116.73;4820444;59;1138364;-85
2020/12/07 22:48:46;;;;;;;33.85;13.90;;;;;;;2.41;75.65;100117.83;4828553;59;1138616;-85
2020/12/07 22:53:52;;;;;;;40.05;17.40;;;;;;;2.38;75.96;100133.64;4706086;60;1138325;-85
2020/12/07 22:58:57;;;;;;;43.02;18.32;;;;;;;2.37;76.06;100138.94;4712472;61;1138627;-85
2020/12/07 23:04:03;;;;;;;41.58;18.00;;;;;;;2.36;76.13;100141.16;4711670;61;1138866;-85
2020/12/07 23:14:16;;;;;;;70.13;23.77;;;;;;;2.32;76.62;100143.53;5172592;55;46268;-83
2020/12/07 23:19:22;;;;;;;47.17;19.97;;;;;;;2.24;76.55;100146.98;5047135;57;1134094;-83
2020/12/07 23:24:27;;;;;;;27.75;11.48;;;;;;;2.23;77.07;100137.02;5118883;56;1138285;-84
2020/12/07 23:29:33;;;;;;;33.77;17.23;;;;;;;2.18;77.49;100129.86;5148729;56;1138395;-83
2020/12/07 23:34:39;;;;;;;39.97;15.90;;;;;;;2.15;77.42;100126.55;5115950;55;1138492;-83
2020/12/07 23:39:44;;;;;;;30.57;14.47;;;;;;;2.16;77.55;100128.24;5211131;56;1136284;-84
2020/12/07 23:44:50;;;;;;;30.73;14.87;;;;;;;2.13;77.85;100125.35;5126960;56;1138528;-84
2020/12/07 23:49:57;;;;;;;34.10;16.60;;;;;;;2.09;77.80;100110.77;5131157;56;1138841;-84
2020/12/07 23:55:03;;;;;;;39.70;18.13;;;;;;;2.05;77.78;100124.41;5146462;56;1138354;-83
